| time (UTC) | temp F | wind direction | speed knots | gust knots | rain 1hr in | rain 24hr in | rain mn in | humidity % | barometer mb |
| 20260906224515 | 87 | 68 | 5.2 | 13.0 | 0.00 | 0.00 | 0.00 | 38 | 1019.5 |
| 20260906223516 | 88 | 68 | 6.1 | 12.2 | 0.00 | 0.00 | 0.00 | 36 | 1019.5 |
| 20260906222516 | 88 | 68 | 7.8 | 13.9 | 0.00 | 0.00 | 0.00 | 35 | 1019.5 |
| 20260906221556 | 88 | 68 | 6.1 | 13.0 | 0.00 | 0.00 | 0.00 | 36 | 1019.8 |
| 20260906220516 | 88 | 68 | 4.3 | 10.4 | 0.00 | 0.00 | 0.00 | 36 | 1020.4 |
| 20260906215536 | 87 | 68 | 6.1 | 11.3 | 0.00 | 0.00 | 0.00 | 36 | 1020.1 |
| 20260906214516 | 87 | 23 | 3.5 | 7.8 | 0.00 | 0.00 | 0.00 | 37 | 1020.3 |
| 20260906213536 | 86 | 68 | 6.1 | 13.0 | 0.00 | 0.00 | 0.00 | 37 | 1020.9 |
| 20260906212515 | 86 | 68 | 3.5 | 9.6 | 0.00 | 0.00 | 0.00 | 38 | 1021.0 |
| 20260906211515 | 87 | 68 | 5.2 | 11.3 | 0.00 | 0.00 | 0.00 | 36 | 1021.1 |
| 20260906210536 | 86 | 68 | 2.6 | 5.2 | 0.00 | 0.00 | 0.00 | 37 | 1021.6 |
| 20260906205516 | 86 | 45 | 4.3 | 9.6 | 0.00 | 0.00 | 0.00 | 37 | 1021.9 |
| 20260906204515 | 86 | 68 | 3.5 | 7.0 | 0.00 | 0.00 | 0.00 | 36 | 1021.9 |
| 20260906203516 | 86 | 45 | 2.6 | 7.0 | 0.00 | 0.00 | 0.00 | 36 | 1022.5 |
| 20260906202515 | 86 | 68 | 4.3 | 8.7 | 0.00 | 0.00 | 0.00 | 36 | 1022.5 |
| 20260906201515 | 86 | 0 | 5.2 | 8.7 | 0.00 | 0.00 | 0.00 | 37 | 1022.5 |
| 20260906200537 | 84 | 68 | 1.7 | 5.2 | 0.00 | 0.00 | 0.00 | 39 | 1022.8 |
| 20260906195557 | 84 | 68 | 3.5 | 7.8 | 0.00 | 0.00 | 0.00 | 39 | 1023.0 |
| 20260906194517 | 83 | 68 | 2.6 | 9.6 | 0.00 | 0.00 | 0.00 | 42 | 1022.8 |
| 20260906193518 | 83 | 113 | 2.6 | 10.4 | 0.00 | 0.00 | 0.00 | 41 | 1022.9 |
| 20260906192518 | 82 | 45 | 3.5 | 9.6 | 0.00 | 0.00 | 0.00 | 43 | 1022.8 |
| 20260906191518 | 82 | 68 | 6.1 | 12.2 | 0.00 | 0.00 | 0.00 | 43 | 1023.0 |
| 20260906190517 | 82 | 68 | 4.3 | 8.7 | 0.00 | 0.00 | 0.00 | 42 | 1023.1 |
| 20260906185517 | 82 | 23 | 3.5 | 8.7 | 0.00 | 0.00 | 0.00 | 42 | 1023.3 |
| 20260906184517 | 81 | 45 | 2.6 | 6.1 | 0.00 | 0.00 | 0.00 | 43 | 1023.3 |
| 20260906183518 | 80 | 68 | 2.6 | 6.1 | 0.00 | 0.00 | 0.00 | 43 | 1023.7 |
| 20260906182517 | 81 | 68 | 3.5 | 8.7 | 0.00 | 0.00 | 0.00 | 43 | 1023.8 |
| 20260906181518 | 80 | 68 | 3.5 | 8.7 | 0.00 | 0.00 | 0.00 | 44 | 1024.0 |
| 20260906180517 | 80 | 45 | 3.5 | 7.0 | 0.00 | 0.00 | 0.00 | 44 | 1023.6 |
| 20260906175517 | 80 | 90 | 1.7 | 5.2 | 0.00 | 0.00 | 0.00 | 43 | 1023.8 |
| 20260906174517 | 79 | 45 | 2.6 | 7.0 | 0.00 | 0.00 | 0.00 | 44 | 1024.0 |
| 20260906173517 | 79 | 68 | 1.7 | 5.2 | 0.00 | 0.00 | 0.00 | 45 | 1024.2 |
| 20260906172517 | 78 | 68 | 2.6 | 5.2 | 0.00 | 0.00 | 0.00 | 45 | 1024.3 |
| 20260906171538 | 77 | 45 | 2.6 | 7.0 | 0.00 | 0.00 | 0.00 | 48 | 1024.3 |
| 20260906170518 | 76 | 68 | 1.7 | 4.3 | 0.00 | 0.00 | 0.00 | 48 | 1024.5 |
| 20260906165517 | 76 | 68 | 2.6 | 5.2 | 0.00 | 0.00 | 0.00 | 50 | 1024.6 |
| 20260906164517 | 75 | 45 | 3.5 | 6.1 | 0.00 | 0.00 | 0.00 | 50 | 1024.7 |
| 20260906163538 | 75 | 90 | 2.6 | 6.1 | 0.00 | 0.00 | 0.00 | 51 | 1025.0 |
| 20260906162517 | 74 | 68 | 2.6 | 7.0 | 0.00 | 0.00 | 0.00 | 53 | 1025.1 |
| 20260906161518 | 74 | 68 | 2.6 | 5.2 | 0.00 | 0.00 | 0.00 | 52 | 1025.0 |
| 20260906160517 | 74 | 90 | 0.9 | 3.5 | 0.00 | 0.00 | 0.00 | 53 | 1024.6 |
| 20260906155537 | 73 | 90 | 2.6 | 6.1 | 0.00 | 0.00 | 0.00 | 54 | 1024.6 |
| 20260906154517 | 72 | 113 | 1.7 | 4.3 | 0.00 | 0.00 | 0.00 | 55 | 1024.2 |
| 20260906153517 | 73 | 68 | 2.6 | 7.8 | 0.00 | 0.00 | 0.00 | 55 | 1024.6 |
| 20260906152517 | 72 | 90 | 1.7 | 3.5 | 0.00 | 0.00 | 0.00 | 55 | 1024.2 |
| 20260906151517 | 72 | 90 | 1.7 | 5.2 | 0.00 | 0.00 | 0.00 | 55 | 1024.2 |
| 20260906150537 | 72 | 135 | 0.9 | 3.5 | 0.00 | 0.00 | 0.00 | 54 | 1024.7 |
| 20260906145518 | 71 | 158 | 0.9 | 3.5 | 0.00 | 0.00 | 0.00 | 55 | 1024.4 |
| 20260906144517 | 69 | 158 | 0.9 | 2.6 | 0.00 | 0.00 | 0.00 | 57 | 1023.8 |
| 20260906143557 | 67 | 158 | 0.9 | 3.5 | 0.00 | 0.00 | 0.00 | 60 | 1023.1 |
| 20260906142537 | 66 | 158 | 0.9 | 3.5 | 0.00 | 0.00 | 0.00 | 60 | 1023.1 |
| 20260906141517 | 66 | 180 | 1.7 | 4.3 | 0.00 | 0.00 | 0.00 | 60 | 1023.1 |
| 20260906140517 | 66 | 0.0 | 1.7 | 0.00 | 0.00 | 0.00 | 62 | 1023.6 | |
| 20260906135517 | 64 | 0.0 | 0.0 | 0.00 | 0.00 | 0.00 | 66 | 1023.2 | |
| 20260906134537 | 63 | 0.0 | 0.0 | 0.00 | 0.00 | 0.00 | 66 | 1022.8 | |
| 20260906133517 | 61 | 0.0 | 0.0 | 0.00 | 0.00 | 0.00 | 69 | 1023.2 | |
| 20260906132518 | 59 | 0.0 | 0.0 | 0.00 | 0.00 | 0.00 | 73 | 1022.5 | |
| 20260906131517 | 58 | 0.0 | 0.0 | 0.00 | 0.00 | 0.00 | 74 | 1021.9 | |
| 20260906130517 | 57 | 0.0 | 0.9 | 0.00 | 0.00 | 0.00 | 74 | 1022.5 | |
| 20260906125517 | 57 | 0.0 | 0.0 | 0.00 | 0.00 | 0.00 | 74 | 1022.3 | |
| 20260906124517 | 57 | 0.0 | 0.0 | 0.00 | 0.00 | 0.00 | 74 | 1022.2 | |
| 20260906123517 | 58 | 0.0 | 1.7 | 0.00 | 0.00 | 0.00 | 73 | 1023.4 | |
| 20260906122517 | 59 | 0.0 | 0.0 | 0.00 | 0.00 | 0.00 | 71 | 1023.9 | |
| 20260906121517 | 59 | 0.0 | 0.9 | 0.00 | 0.00 | 0.00 | 70 | 1023.9 | |
| 20260906120557 | 60 | 0.0 | 0.0 | 0.00 | 0.00 | 0.00 | 70 | 1024.4 | |
| 20260906115517 | 60 | 113 | 0.9 | 2.6 | 0.00 | 0.00 | 0.00 | 69 | 1024.4 |
| 20260906114517 | 60 | 113 | 0.9 | 2.6 | 0.00 | 0.00 | 0.00 | 68 | 1024.5 |
| 20260906113517 | 61 | 0.0 | 2.6 | 0.00 | 0.00 | 0.00 | 67 | 1024.9 | |
| 20260906112517 | 61 | 158 | 1.7 | 4.3 | 0.00 | 0.00 | 0.00 | 65 | 1024.7 |
| 20260906111517 | 61 | 135 | 1.7 | 3.5 | 0.00 | 0.00 | 0.00 | 66 | 1024.5 |
| 20260906110537 | 60 | 135 | 0.9 | 1.7 | 0.00 | 0.00 | 0.00 | 67 | 1023.8 |
| 20260906105517 | 60 | 135 | 0.9 | 1.7 | 0.00 | 0.00 | 0.00 | 66 | 1023.8 |
| 20260906104537 | 61 | 0.0 | 1.7 | 0.00 | 0.00 | 0.00 | 66 | 1024.2 | |
| 20260906103537 | 61 | 0.0 | 0.0 | 0.00 | 0.00 | 0.00 | 66 | 1024.3 | |
| 20260906102517 | 61 | 0.0 | 0.0 | 0.00 | 0.00 | 0.00 | 66 | 1024.2 | |
| 20260906101517 | 61 | 0.0 | 0.0 | 0.00 | 0.00 | 0.00 | 66 | 1024.3 | |
| 20260906100517 | 61 | 0.0 | 0.0 | 0.00 | 0.00 | 0.00 | 64 | 1024.1 | |
| 20260906095517 | 61 | 135 | 0.9 | 1.7 | 0.00 | 0.00 | 0.00 | 64 | 1024.1 |
| 20260906094517 | 62 | 0.0 | 0.9 | 0.00 | 0.00 | 0.00 | 63 | 1024.1 | |
| 20260906093517 | 63 | 0.0 | 1.7 | 0.00 | 0.00 | 0.00 | 62 | 1024.3 | |
| 20260906092517 | 63 | 0.0 | 0.0 | 0.00 | 0.00 | 0.00 | 60 | 1024.2 | |
| 20260906091517 | 64 | 0.0 | 1.7 | 0.00 | 0.00 | 0.00 | 59 | 1024.5 | |
| 20260906090517 | 65 | 0.0 | 1.7 | 0.00 | 0.00 | 0.00 | 58 | 1024.5 | |
| 20260906085517 | 66 | 135 | 0.9 | 2.6 | 0.00 | 0.00 | 0.00 | 56 | 1024.6 |
| 20260906084517 | 67 | 135 | 1.7 | 3.5 | 0.00 | 0.00 | 0.00 | 54 | 1024.8 |
| 20260906083517 | 67 | 68 | 1.7 | 5.2 | 0.00 | 0.00 | 0.00 | 54 | 1024.7 |
| 20260906082517 | 68 | 68 | 1.7 | 4.3 | 0.00 | 0.00 | 0.00 | 53 | 1024.6 |
| 20260906081517 | 68 | 68 | 1.7 | 3.5 | 0.00 | 0.00 | 0.00 | 52 | 1024.9 |
| 20260906080537 | 69 | 68 | 1.7 | 5.2 | 0.00 | 0.00 | 0.00 | 51 | 1025.0 |
| 20260906075517 | 69 | 68 | 1.7 | 4.3 | 0.00 | 0.00 | 0.00 | 50 | 1024.9 |
| 20260906074517 | 70 | 45 | 0.9 | 3.5 | 0.00 | 0.00 | 0.00 | 50 | 1025.0 |
| 20260906073537 | 71 | 293 | 1.7 | 5.2 | 0.00 | 0.00 | 0.00 | 50 | 1024.5 |
| 20260906072517 | 70 | 225 | 2.6 | 8.7 | 0.00 | 0.00 | 0.00 | 50 | 1024.5 |
| 20260906071517 | 69 | 180 | 1.7 | 7.0 | 0.00 | 0.00 | 0.00 | 53 | 1024.6 |
| 20260906070517 | 68 | 90 | 0.9 | 2.6 | 0.00 | 0.00 | 0.00 | 54 | 1024.2 |
| 20260906065537 | 69 | 68 | 0.9 | 2.6 | 0.00 | 0.00 | 0.00 | 53 | 1024.6 |
| 20260906064517 | 69 | 68 | 1.7 | 4.3 | 0.00 | 0.00 | 0.00 | 53 | 1024.6 |
| 20260906063517 | 69 | 68 | 1.7 | 3.5 | 0.00 | 0.00 | 0.00 | 52 | 1024.7 |
| 20260906062537 | 70 | 338 | 0.9 | 5.2 | 0.00 | 0.00 | 0.00 | 51 | 1024.9 |
| 20260906061517 | 70 | 23 | 0.9 | 2.6 | 0.00 | 0.00 | 0.00 | 51 | 1025.0 |
| 20260906060517 | 70 | 248 | 1.7 | 7.0 | 0.00 | 0.00 | 0.00 | 51 | 1024.9 |
| 20260906055516 | 69 | 23 | 1.7 | 4.3 | 0.00 | 0.00 | 0.00 | 52 | 1025.1 |
| 20260906054516 | 69 | 90 | 1.7 | 5.2 | 0.00 | 0.00 | 0.00 | 52 | 1025.0 |
| 20260906053516 | 70 | 225 | 0.9 | 2.6 | 0.00 | 0.00 | 0.00 | 51 | 1025.1 |
| 20260906052516 | 70 | 293 | 0.9 | 5.2 | 0.00 | 0.00 | 0.00 | 50 | 1025.2 |
| 20260906051536 | 70 | 0.0 | 1.7 | 0.00 | 0.00 | 0.00 | 51 | 1025.2 | |
| 20260906050516 | 71 | 203 | 1.7 | 6.1 | 0.00 | 0.00 | 0.00 | 51 | 1024.9 |
| 20260906045516 | 70 | 225 | 3.5 | 8.7 | 0.00 | 0.00 | 0.00 | 53 | 1024.9 |
| 20260906044516 | 71 | 225 | 6.1 | 13.0 | 0.00 | 0.00 | 0.00 | 52 | 1025.3 |
| 20260906043537 | 76 | 225 | 7.0 | 13.9 | 0.00 | 0.00 | 0.00 | 42 | 1025.5 |
| 20260906042536 | 76 | 158 | 4.3 | 9.6 | 0.00 | 0.00 | 0.00 | 37 | 1025.5 |
| 20260906041516 | 74 | 180 | 1.7 | 3.5 | 0.00 | 0.00 | 0.00 | 38 | 1024.9 |
| 20260906040516 | 74 | 90 | 2.6 | 6.1 | 0.00 | 0.00 | 0.00 | 40 | 1024.1 |
| 20260906035516 | 73 | 180 | 1.7 | 8.7 | 0.00 | 0.00 | 0.00 | 40 | 1023.2 |
| 20260906034516 | 73 | 68 | 0.9 | 1.7 | 0.00 | 0.00 | 0.00 | 40 | 1023.0 |
| 20260906033516 | 73 | 68 | 0.9 | 1.7 | 0.00 | 0.00 | 0.00 | 40 | 1022.5 |
| 20260906032516 | 73 | 0.0 | 0.0 | 0.00 | 0.00 | 0.00 | 40 | 1022.3 | |
| 20260906031516 | 73 | 68 | 0.9 | 2.6 | 0.00 | 0.00 | 0.00 | 41 | 1022.3 |
| 20260906030516 | 73 | 0.0 | 0.9 | 0.00 | 0.00 | 0.00 | 41 | 1021.4 | |
| 20260906025516 | 74 | 0.0 | 0.9 | 0.00 | 0.00 | 0.00 | 40 | 1021.5 | |
| 20260906024516 | 74 | 0.0 | 0.0 | 0.00 | 0.00 | 0.00 | 39 | 1021.3 | |
| 20260906023556 | 74 | 0.0 | 0.9 | 0.00 | 0.00 | 0.00 | 39 | 1021.3 | |
| 20260906022516 | 74 | 68 | 1.7 | 2.6 | 0.00 | 0.00 | 0.00 | 39 | 1021.3 |
| 20260906021516 | 73 | 45 | 0.9 | 2.6 | 0.00 | 0.00 | 0.00 | 40 | 1020.7 |
| 20260906020516 | 73 | 0.0 | 1.7 | 0.00 | 0.00 | 0.00 | 41 | 1019.8 | |
| 20260906015536 | 74 | 0.0 | 0.0 | 0.00 | 0.00 | 0.00 | 41 | 1020.1 | |
| 20260906014516 | 75 | 0.0 | 0.0 | 0.00 | 0.00 | 0.00 | 42 | 1020.0 | |
| 20260906013516 | 75 | 0.0 | 0.0 | 0.00 | 0.00 | 0.00 | 41 | 1019.1 | |
| 20260906012516 | 76 | 0.0 | 0.0 | 0.00 | 0.00 | 0.00 | 41 | 1019.4 | |
| 20260906011557 | 77 | 45 | 0.9 | 1.7 | 0.00 | 0.00 | 0.00 | 40 | 1019.3 |
| 20260906010516 | 78 | 0.0 | 2.6 | 0.00 | 0.00 | 0.00 | 37 | 1019.5 | |
| 20260906005517 | 79 | 0.0 | 0.0 | 0.00 | 0.00 | 0.00 | 39 | 1019.7 | |
| 20260906004516 | 81 | 0.0 | 0.0 | 0.00 | 0.00 | 0.00 | 39 | 1020.2 | |
| 20260906003516 | 83 | 68 | 0.9 | 2.6 | 0.00 | 0.00 | 0.00 | 37 | 1020.9 |
| 20260906002516 | 86 | 68 | 0.9 | 2.6 | 0.00 | 0.00 | 0.00 | 32 | 1021.2 |
| 20260906001516 | 87 | 68 | 0.9 | 2.6 | 0.00 | 0.00 | 0.00 | 30 | 1021.5 |
| 20260906000516 | 87 | 68 | 0.9 | 1.7 | 0.00 | 0.00 | 0.00 | 28 | 1021.0 |
| 20260905235516 | 87 | 0.0 | 0.0 | 0.00 | 0.00 | 0.00 | 28 | 1020.9 | |
| 20260905234516 | 88 | 68 | 2.6 | 6.1 | 0.00 | 0.00 | 0.00 | 25 | 1021.2 |
| 20260905233536 | 91 | 68 | 2.6 | 4.3 | 0.00 | 0.00 | 0.00 | 23 | 1021.5 |
| 20260905232516 | 91 | 315 | 0.9 | 4.3 | 0.00 | 0.00 | 0.00 | 23 | 1021.6 |
| 20260905231516 | 90 | 68 | 2.6 | 4.3 | 0.00 | 0.00 | 0.00 | 24 | 1021.2 |
| 20260905230517 | 91 | 45 | 1.7 | 3.5 | 0.00 | 0.00 | 0.00 | 23 | 1021.4 |
| 20260905225516 | 90 | 0 | 1.7 | 4.3 | 0.00 | 0.00 | 0.00 | 24 | 1021.3 |